This is the latest recevied weather packets stored in our database for station/object IV3ONZ. If no packets are shown the sender has not sent any weather packets the latest 10 day(s).
| Time | Temp. | Humidity | Pressure | Rain* | Wind** | Luminosity | Snow |
|---|---|---|---|---|---|---|---|
| 1777395304 | 20.56° C | 57% | 1018 hPa | 0 mm | - | 52 W/m² | - |
| 1777394704 | 20.56° C | 55% | 1017.9 hPa | 0 mm | - | 66 W/m² | - |
| 1777393804 | 21.67° C | 48% | 1017.8 hPa | 0 mm | - | 81 W/m² | - |
| 1777391103 | 21.67° C | 46% | 1017.8 hPa | 0 mm | - | 59 W/m² | - |
| 1777389604 | 22.22° C | 44% | 1017.7 hPa | 0 mm | - | 75 W/m² | - |
| 1777388704 | 22.22° C | 43% | 1017.7 hPa | 0 mm | - | 86 W/m² | - |
| 1777379836 | 24.44° C | 37% | 1018 hPa | 0 mm | - | 781 W/m² | - |
| 1777378804 | 23.89° C | 38% | 1018.3 hPa | 0 mm | - | 649 W/m² | - |
| 1777377905 | 23.89° C | 40% | 1018.3 hPa | 0 mm | - | 492 W/m² | - |
| 1777377605 | 24.44° C | 38% | 1017.9 hPa | 0 mm | - | 708 W/m² | - |
| 1777377440 | 25° C | 37% | 1018 hPa | 0 mm | - | 647 W/m² | - |
| 1777376104 | 25° C | 35% | 1018.5 hPa | 0 mm | - | 826 W/m² | - |
| 1777373704 | 23.89° C | 36% | 1018.7 hPa | 0 mm | - | 885 W/m² | - |
| 1777371004 | 23.33° C | 37% | 1018.7 hPa | 0 mm | - | 852 W/m² | - |
| 1777369033 | 23.33° C | 36% | 1019.2 hPa | 0 mm | - | 800 W/m² | - |
| 1777366804 | 23.33° C | 38% | 1019.4 hPa | 0 mm | - | 750 W/m² | - |
| 1777361704 | 21.67° C | 41% | 1018.9 hPa | 0 mm | - | 525 W/m² | - |
| 1777360504 | 21.11° C | 44% | 1019 hPa | 0 mm | - | 446 W/m² | - |
| 1777358235 | 17.22° C | 62% | 1019 hPa | 0 mm | - | 181 W/m² | - |
| 1777356735 | 16.67° C | 60% | 1018.9 hPa | 0 mm | - | 171 W/m² | - |
| 1777355104 | 14.44° C | 67% | 1019 hPa | 0 mm | - | 168 W/m² | - |
| 1777354504 | 14.44° C | 68% | 1018.9 hPa | 0 mm | - | 132 W/m² | - |
| 1777352704 | 12.78° C | 74% | 1018.9 hPa | 0 mm | - | 87 W/m² | - |
| 1777351804 | 12.78° C | 71% | 1018.7 hPa | 0 mm | - | 51 W/m² | - |
| 1777350904 | 12.22° C | 73% | 1018.7 hPa | 0 mm | - | 28 W/m² | - |
* Rain latest hour (hover to see other rain measurements)
** Current wind speed in m/s (hover to see current wind gust speed)